Morton, Mississippi
Current Conditions -  °F | °C
As of 7:54 AM on Monday 26 Jan 2015 (Local Time) from KJAN Reporting Station
Overcast Overcast  
Wind Chill: 39°   Ceiling: 2500
Heat Index: 45°   Visibility: 10mi
Dew Point: 35°   Wind: 13mph
Humidity: 68%   Direction: 340°NNW
Pressure: 30.1"   Gusts: NA
Location:  32.35°N, 89.65°W
Report Text: KJAN 261354Z 34011KT 10SM OVC025 07/02 A3010 RMK AO2 SLP193 T00720017
Loading
Personal Weather Stations






























Interactive Weather Map New forecast layout! Learn more

10-Day Weather Forecast

Advertisements
Track Severe Weather on mobile